Time;durP1;ratioP1;P1;durP2;ratioP2;P2;SDS_P1;SDS_P2;PMS_P1;PMS_P2;Temp;Humidity;BMP_temperature;BMP_pressure;BME280_temperature;BME280_humidity;BME280_pressure;Samples;Min_cycle;Max_cycle;Signal;HPM_P1;HPM_P2
2023/04/20 00:02:16;;;;;;;;;12.25;10.50;;;;;14.84;33.44;101139.22;5059876;28;45036;-72
2023/04/20 00:04:42;;;;;;;;;12.75;9.50;;;;;14.87;33.25;101145.53;5034326;28;46920;-74
2023/04/20 00:07:07;;;;;;;;;16.50;11.75;;;;;14.84;33.49;101139.22;5052185;28;44958;-74
2023/04/20 00:09:34;;;;;;;;;14.50;12.00;;;;;14.79;33.32;101141.84;5050395;28;45077;-71
2023/04/20 00:12:00;;;;;;;;;12.50;12.50;;;;;14.74;33.89;101135.47;5052156;28;45042;-71
2023/04/20 00:14:26;;;;;;;;;13.00;12.00;;;;;14.74;33.77;101133.69;5052238;28;45447;-68
2023/04/20 00:16:51;;;;;;;;;15.75;12.75;;;;;14.67;33.80;101123.72;5051397;28;45335;-67
2023/04/20 00:19:16;;;;;;;;;14.75;12.00;;;;;14.56;33.92;101107.38;5051592;28;45227;-72
2023/04/20 00:21:42;;;;;;;;;9.25;8.50;;;;;14.65;33.61;101127.25;5055708;28;45208;-65
2023/04/20 00:24:08;;;;;;;;;15.75;11.75;;;;;14.56;33.94;101120.81;5071687;28;45341;-70
2023/04/20 00:26:33;;;;;;;;;9.25;8.00;;;;;14.59;34.23;101130.78;5068377;28;45144;-72
2023/04/20 00:28:59;;;;;;;;;17.75;11.75;;;;;14.40;33.77;101101.75;5057931;28;45300;-73
2023/04/20 00:31:24;;;;;;;;;11.75;10.50;;;;;14.46;34.44;101134.09;5054461;28;45243;-72
2023/04/20 00:33:49;;;;;;;;;16.50;12.75;;;;;14.28;34.22;101111.41;5068877;28;45181;-74
2023/04/20 00:36:15;;;;;;;;;14.00;12.00;;;;;14.19;34.43;101104.09;5051311;28;45567;-73
2023/04/20 00:38:40;;;;;;;;;18.50;12.50;;;;;14.19;34.47;101108.56;5052677;28;45142;-73
2023/04/20 00:41:06;;;;;;;;;15.75;12.75;;;;;14.24;34.39;101125.69;5054013;28;45319;-72
2023/04/20 00:43:31;;;;;;;;;12.25;10.75;;;;;14.18;34.57;101123.78;5064059;28;45538;-74
2023/04/20 00:45:56;;;;;;;;;14.00;13.50;;;;;13.92;34.78;101085.69;5080585;28;45108;-73
2023/04/20 00:48:22;;;;;;;;;12.25;10.75;;;;;14.01;35.15;101107.34;5057434;28;45337;-71
2023/04/20 00:50:49;;;;;;;;;14.00;9.75;;;;;14.15;34.75;101117.44;5032796;28;45940;-73
2023/04/20 00:53:15;;;;;;;;;10.00;10.00;;;;;13.97;35.18;101083.09;5048207;28;45462;-74
2023/04/20 00:55:42;;;;;;;;;14.25;11.50;;;;;14.13;35.24;101114.72;5054197;28;45090;-72
2023/04/20 00:58:08;;;;;;;;;13.50;10.25;;;;;14.04;35.19;101109.22;5044756;28;44997;-76
2023/04/20 01:00:33;;;;;;;;;12.50;10.75;;;;;13.83;34.86;101078.38;5060085;28;45633;-74
2023/04/20 01:02:59;;;;;;;;;11.25;10.00;;;;;14.03;35.26;101106.50;5060275;28;45845;-74
2023/04/20 01:05:25;;;;;;;;;15.00;12.00;;;;;14.05;35.43;101113.69;5053472;28;45276;-74
2023/04/20 01:07:51;;;;;;;;;14.00;13.50;;;;;14.01;35.37;101117.22;5053656;28;45203;-72
2023/04/20 01:10:16;;;;;;;;;13.00;11.00;;;;;13.98;35.15;101109.09;5047543;28;45268;-72
2023/04/20 01:12:42;;;;;;;;;12.00;12.00;;;;;13.43;35.18;101025.75;5056282;28;45331;-72
2023/04/20 01:15:08;;;;;;;;;17.25;15.00;;;;;13.90;35.12;101124.16;5032920;28;45062;-74
2023/04/20 01:17:38;;;;;;;;;11.25;11.25;;;;;13.85;35.66;101107.06;5055491;28;45151;-74
2023/04/20 01:20:08;;;;;;;;;12.75;9.50;;;;;13.79;34.86;101113.19;5044590;28;45096;-74
2023/04/20 01:22:45;;;;;;;;;15.50;14.50;;;;;13.80;35.65;101112.34;5032176;28;47483;-73
2023/04/20 01:25:10;;;;;;;;;14.00;10.75;;;;;13.72;35.23;101096.06;5047016;28;45037;-74
2023/04/20 01:27:36;;;;;;;;;12.75;9.75;;;;;13.72;35.43;101096.06;5046794;28;45452;-74
2023/04/20 01:30:01;;;;;;;;;11.50;10.25;;;;;13.73;35.60;101092.53;5057635;28;44839;-74
2023/04/20 01:32:28;;;;;;;;;10.00;10.00;;;;;13.73;35.54;101094.31;5058861;28;45621;-72
2023/04/20 01:34:53;;;;;;;;;15.50;11.00;;;;;13.72;35.45;101098.75;5030113;28;45189;-74
2023/04/20 01:37:19;;;;;;;;;14.00;11.75;;;;;13.70;35.49;101086.19;5048565;28;44968;-76
2023/04/20 01:39:46;;;;;;;;;15.50;10.50;;;;;13.66;35.78;101087.91;5055560;28;44934;-75
2023/04/20 01:42:11;;;;;;;;;10.75;10.75;;;;;13.60;35.89;101079.75;5068173;28;46006;-74
2023/04/20 01:44:38;;;;;;;;;13.00;11.25;;;;;13.40;35.85;101047.16;5060070;28;45128;-73
2023/04/20 01:47:03;;;;;;;;;12.75;11.00;;;;;13.50;35.56;101061.66;5057515;28;45232;-74
2023/04/20 01:49:29;;;;;;;;;11.50;9.25;;;;;13.46;36.44;101060.66;5055125;28;45025;-73
2023/04/20 01:51:54;;;;;;;;;12.75;11.50;;;;;13.55;36.57;101078.75;5063773;28;46202;-72
2023/04/20 01:54:20;;;;;;;;;11.25;9.75;;;;;13.54;36.15;101083.19;5065875;28;45139;-70
2023/04/20 01:56:45;;;;;;;;;12.50;10.75;;;;;13.54;36.16;101082.28;5052561;28;45234;-71
2023/04/20 01:59:10;;;;;;;;;11.00;10.25;;;;;13.53;36.34;101084.09;5056168;28;45229;-72
2023/04/20 02:01:36;;;;;;;;;10.75;7.25;;;;;13.48;36.42;101068.75;5056494;28;45089;-73
2023/04/20 02:04:01;;;;;;;;;10.00;10.00;;;;;11.95;36.53;100810.91;5063758;28;48700;-67
2023/04/20 02:06:26;;;;;;;;;11.75;11.00;;;;;13.44;36.70;101076.72;5042645;28;45634;-73
2023/04/20 02:08:52;;;;;;;;;10.00;9.25;;;;;13.31;36.70;101063.91;5054466;28;44903;-70
2023/04/20 02:11:18;;;;;;;;;11.00;9.25;;;;;13.30;36.77;101070.19;5036171;28;46331;-70
2023/04/20 02:13:43;;;;;;;;;13.50;10.00;;;;;13.32;36.72;101080.94;5039189;28;45541;-72
2023/04/20 02:16:09;;;;;;;;;16.00;11.00;;;;;13.34;37.25;101089.94;5031539;28;45398;-71
2023/04/20 02:18:36;;;;;;;;;9.75;9.00;;;;;13.33;36.60;101083.69;5052366;28;45053;-72
2023/04/20 02:21:02;;;;;;;;;7.50;6.75;;;;;13.27;36.94;101091.56;5042797;28;46315;-69
2023/04/20 02:23:27;;;;;;;;;9.75;9.25;;;;;13.24;37.44;101086.13;5041671;28;45361;-72
2023/04/20 02:25:53;;;;;;;;;11.25;10.75;;;;;13.11;36.52;101073.34;5049767;28;45406;-74
2023/04/20 02:28:18;;;;;;;;;11.75;9.75;;;;;13.09;36.69;101073.31;5052463;28;45050;-71
2023/04/20 02:30:43;;;;;;;;;11.00;10.75;;;;;13.16;36.99;101093.13;5052026;28;53252;-70
2023/04/20 02:33:09;;;;;;;;;11.50;7.00;;;;;13.04;36.63;101078.56;5044353;28;44912;-74
2023/04/20 02:35:34;;;;;;;;;11.25;9.50;;;;;13.11;36.92;101097.47;5044647;28;44975;-69
